WZZ2UT EGGP-EPWA
Flight info
| Callsign | WZZ2UT |
|---|---|
| Flight time | 2h 5m |
| Altitude | 35000 |
| Route | BARTN L975 DESIG L603 LAMSO DCT ISMEF DCT GARLU DCT ALUKA DCT EKBUT L619 DENKO P851 BIMPA |
| Aircraft | A321/M-SDE3FGHIRWY/LB1 |
Departure
| Time | 2026-05-04 17:03 |
|---|---|
| Airport | Liverpool John Lennon Airport (EGGP) |
Arrival
| Time | 2026-05-04 19:08 |
|---|---|
| Airport | Warsaw Chopin Airport (EPWA) |
| Time | Latitude | Longitude | Altitude | Speed | Heading |
|---|---|---|---|---|---|
| 2026-05-04 16:22 | 53.33654 | -2.85719 | 95 ft | 0 kts | 355° |
| 2026-05-04 16:51 | 53.33638 | -2.85719 | 96 ft | 2 kts | 3° |
| 2026-05-04 16:51 | 53.33609 | -2.85741 | 94 ft | 2 kts | 57° |
| 2026-05-04 16:52 | 53.33597 | -2.85790 | 94 ft | 2 kts | 84° |
| 2026-05-04 16:52 | 53.33596 | -2.85797 | 94 ft | 0 kts | 86° |
| 2026-05-04 16:56 | 53.33601 | -2.85704 | 96 ft | 8 kts | 84° |
| 2026-05-04 16:57 | 53.33606 | -2.85607 | 94 ft | 9 kts | 84° |
| 2026-05-04 16:57 | 53.33527 | -2.85503 | 95 ft | 9 kts | 166° |
| 2026-05-04 16:58 | 53.33525 | -2.85080 | 98 ft | 16 kts | 85° |
| 2026-05-04 16:58 | 53.33533 | -2.84890 | 94 ft | 17 kts | 86° |
| 2026-05-04 16:59 | 53.33551 | -2.84484 | 94 ft | 18 kts | 86° |
| 2026-05-04 17:00 | 53.33593 | -2.83582 | 95 ft | 21 kts | 86° |
| 2026-05-04 17:00 | 53.33547 | -2.83308 | 96 ft | 0 kts | 163° |
| 2026-05-04 17:02 | 53.33507 | -2.83298 | 94 ft | 10 kts | 176° |
| 2026-05-04 17:02 | 53.33434 | -2.83366 | 94 ft | 0 kts | 265° |
| 2026-05-04 17:03 | 53.33433 | -2.83396 | 96 ft | 21 kts | 265° |
| 2026-05-04 17:03 | 53.33403 | -2.84080 | 95 ft | 94 kts | 265° |
| 2026-05-04 17:03 | 53.33245 | -2.87321 | 749 ft | 149 kts | 265° |
| 2026-05-04 17:04 | 53.33054 | -2.90860 | 1774 ft | 167 kts | 269° |
| 2026-05-04 17:04 | 53.34238 | -2.94498 | 2157 ft | 209 kts | 332° |
| 2026-05-04 17:05 | 53.37370 | -2.94116 | 2704 ft | 253 kts | 18° |
| 2026-05-04 17:05 | 53.40723 | -2.91972 | 4151 ft | 263 kts | 37° |
| 2026-05-04 17:06 | 53.42284 | -2.86547 | 5619 ft | 270 kts | 79° |
| 2026-05-04 17:06 | 53.42629 | -2.83431 | 6363 ft | 274 kts | 79° |
| 2026-05-04 17:07 | 53.43312 | -2.77034 | 7717 ft | 283 kts | 79° |
| 2026-05-04 17:07 | 53.43543 | -2.74880 | 8187 ft | 285 kts | 79° |
| 2026-05-04 17:07 | 53.44023 | -2.70460 | 9064 ft | 291 kts | 78° |
| 2026-05-04 17:07 | 53.44392 | -2.67092 | 9729 ft | 296 kts | 78° |
| 2026-05-04 17:08 | 53.44766 | -2.63678 | 10321 ft | 302 kts | 79° |
| 2026-05-04 17:08 | 53.45585 | -2.56238 | 10614 ft | 346 kts | 79° |
| 2026-05-04 17:08 | 53.46030 | -2.52203 | 11054 ft | 355 kts | 79° |
| 2026-05-04 17:09 | 53.46479 | -2.48106 | 11656 ft | 359 kts | 79° |
| 2026-05-04 17:09 | 53.46930 | -2.43957 | 12268 ft | 363 kts | 79° |
| 2026-05-04 17:09 | 53.47383 | -2.39764 | 12892 ft | 366 kts | 79° |
| 2026-05-04 17:10 | 53.48293 | -2.31331 | 14121 ft | 373 kts | 79° |
| 2026-05-04 17:10 | 53.49674 | -2.18325 | 15863 ft | 381 kts | 80° |
| 2026-05-04 17:11 | 53.50139 | -2.13916 | 16434 ft | 384 kts | 80° |
| 2026-05-04 17:11 | 53.50609 | -2.09484 | 17022 ft | 387 kts | 80° |
| 2026-05-04 17:11 | 53.51551 | -2.00516 | 18159 ft | 393 kts | 80° |
| 2026-05-04 17:12 | 53.52023 | -1.95977 | 18666 ft | 396 kts | 80° |
| 2026-05-04 17:12 | 53.52147 | -1.86738 | 19689 ft | 399 kts | 99° |
| 2026-05-04 17:13 | 53.49893 | -1.73226 | 21289 ft | 403 kts | 106° |
| 2026-05-04 17:14 | 53.47484 | -1.59583 | 22744 ft | 409 kts | 106° |
| 2026-05-04 17:14 | 53.46668 | -1.54996 | 23222 ft | 411 kts | 106° |
| 2026-05-04 17:14 | 53.45021 | -1.45748 | 24028 ft | 415 kts | 105° |
| 2026-05-04 17:15 | 53.44276 | -1.41062 | 24421 ft | 417 kts | 103° |
| 2026-05-04 17:15 | 53.42962 | -1.31560 | 25184 ft | 420 kts | 102° |
| 2026-05-04 17:16 | 53.41680 | -1.21967 | 25923 ft | 423 kts | 102° |
| 2026-05-04 17:16 | 53.39635 | -1.07480 | 26999 ft | 429 kts | 102° |
| 2026-05-04 17:17 | 53.38931 | -1.02619 | 27352 ft | 430 kts | 102° |
| 2026-05-04 17:17 | 53.36785 | -0.87894 | 28302 ft | 437 kts | 102° |
| 2026-05-04 17:18 | 53.36059 | -0.82949 | 28632 ft | 438 kts | 102° |
| 2026-05-04 17:18 | 53.34602 | -0.72997 | 29286 ft | 442 kts | 102° |
| 2026-05-04 17:19 | 53.33138 | -0.62982 | 29968 ft | 444 kts | 102° |
| 2026-05-04 17:19 | 53.31659 | -0.52989 | 30758 ft | 441 kts | 102° |
| 2026-05-04 17:20 | 53.30172 | -0.43059 | 31478 ft | 440 kts | 102° |
| 2026-05-04 17:20 | 53.28684 | -0.33159 | 32183 ft | 438 kts | 102° |
| 2026-05-04 17:20 | 53.27939 | -0.28230 | 32527 ft | 437 kts | 103° |
| 2026-05-04 17:21 | 53.26458 | -0.18465 | 33203 ft | 436 kts | 103° |
| 2026-05-04 17:21 | 53.24968 | -0.08665 | 33870 ft | 435 kts | 103° |
| 2026-05-04 17:22 | 53.24216 | -0.03756 | 34079 ft | 437 kts | 104° |
| 2026-05-04 17:22 | 53.23459 | 0.01165 | 34261 ft | 439 kts | 104° |
| 2026-05-04 17:23 | 53.21408 | 0.14399 | 34741 ft | 444 kts | 104° |
| 2026-05-04 17:23 | 53.20634 | 0.19387 | 34955 ft | 445 kts | 104° |
| 2026-05-04 17:24 | 53.18303 | 0.34350 | 35054 ft | 444 kts | 105° |
| 2026-05-04 17:25 | 53.15155 | 0.54244 | 35050 ft | 445 kts | 105° |
| 2026-05-04 17:26 | 53.11961 | 0.74277 | 35048 ft | 448 kts | 105° |
| 2026-05-04 17:27 | 53.07892 | 0.99333 | 35059 ft | 449 kts | 105° |
| 2026-05-04 17:28 | 53.04603 | 1.19399 | 35047 ft | 451 kts | 106° |
| 2026-05-04 17:29 | 52.99588 | 1.49470 | 35058 ft | 452 kts | 107° |
| 2026-05-04 17:31 | 52.95320 | 1.74654 | 35036 ft | 455 kts | 108° |
| 2026-05-04 17:32 | 52.90976 | 1.99953 | 35052 ft | 457 kts | 108° |
| 2026-05-04 17:33 | 52.87462 | 2.20203 | 35038 ft | 458 kts | 108° |
| 2026-05-04 17:34 | 52.83886 | 2.40463 | 35048 ft | 459 kts | 108° |
| 2026-05-04 17:35 | 52.79376 | 2.65782 | 35037 ft | 460 kts | 109° |
| 2026-05-04 17:36 | 52.77557 | 2.75911 | 35040 ft | 460 kts | 109° |
| 2026-05-04 17:36 | 52.75718 | 2.86033 | 35043 ft | 460 kts | 109° |
| 2026-05-04 17:37 | 52.73899 | 2.96156 | 35045 ft | 461 kts | 106° |
| 2026-05-04 17:37 | 52.73247 | 3.06707 | 35039 ft | 466 kts | 92° |
| 2026-05-04 17:38 | 52.73208 | 3.17400 | 35029 ft | 466 kts | 93° |
| 2026-05-04 17:38 | 52.73140 | 3.28101 | 35044 ft | 467 kts | 93° |
| 2026-05-04 17:39 | 52.73016 | 3.44099 | 35044 ft | 467 kts | 93° |
| 2026-05-04 17:39 | 52.72925 | 3.54823 | 35028 ft | 468 kts | 94° |
| 2026-05-04 17:40 | 52.72825 | 3.65558 | 35021 ft | 468 kts | 94° |
| 2026-05-04 17:40 | 52.72717 | 3.76309 | 35025 ft | 469 kts | 94° |
| 2026-05-04 17:41 | 52.72604 | 3.87077 | 35024 ft | 469 kts | 94° |
| 2026-05-04 17:41 | 52.72482 | 3.97850 | 35025 ft | 470 kts | 94° |
| 2026-05-04 17:42 | 52.72344 | 4.08618 | 35005 ft | 470 kts | 94° |
| 2026-05-04 17:42 | 52.72192 | 4.19423 | 35005 ft | 472 kts | 94° |
| 2026-05-04 17:43 | 52.72030 | 4.30246 | 35006 ft | 472 kts | 94° |
| 2026-05-04 17:43 | 52.71859 | 4.41090 | 35012 ft | 473 kts | 94° |
| 2026-05-04 17:44 | 52.71681 | 4.51937 | 35018 ft | 473 kts | 95° |
| 2026-05-04 17:44 | 52.71494 | 4.62777 | 35017 ft | 473 kts | 95° |
| 2026-05-04 17:45 | 52.71298 | 4.73628 | 35026 ft | 473 kts | 95° |
| 2026-05-04 17:45 | 52.71088 | 4.84473 | 35025 ft | 473 kts | 95° |
| 2026-05-04 17:46 | 52.70865 | 4.95315 | 35029 ft | 473 kts | 95° |
| 2026-05-04 17:46 | 52.70632 | 5.06154 | 35004 ft | 473 kts | 95° |
| 2026-05-04 17:47 | 52.70397 | 5.16938 | 34998 ft | 474 kts | 95° |
| 2026-05-04 17:47 | 52.70154 | 5.27808 | 34988 ft | 475 kts | 95° |
| 2026-05-04 17:48 | 52.69898 | 5.38689 | 34992 ft | 475 kts | 96° |
| 2026-05-04 17:48 | 52.69626 | 5.49578 | 34993 ft | 475 kts | 96° |
| 2026-05-04 17:49 | 52.69341 | 5.60461 | 34987 ft | 476 kts | 96° |
| 2026-05-04 17:49 | 52.69053 | 5.71361 | 34994 ft | 476 kts | 96° |
| 2026-05-04 17:50 | 52.68757 | 5.82277 | 34995 ft | 477 kts | 96° |
| 2026-05-04 17:50 | 52.68452 | 5.93193 | 34999 ft | 477 kts | 96° |
| 2026-05-04 17:51 | 52.68135 | 6.04098 | 34986 ft | 477 kts | 97° |
| 2026-05-04 17:51 | 52.67801 | 6.15018 | 34986 ft | 477 kts | 97° |
| 2026-05-04 17:52 | 52.67456 | 6.25942 | 34994 ft | 478 kts | 97° |
| 2026-05-04 17:52 | 52.67104 | 6.36880 | 34996 ft | 478 kts | 97° |
| 2026-05-04 17:53 | 52.66750 | 6.47808 | 34997 ft | 478 kts | 97° |
| 2026-05-04 17:53 | 52.66382 | 6.58745 | 34988 ft | 478 kts | 97° |
| 2026-05-04 17:54 | 52.66001 | 6.69683 | 34989 ft | 479 kts | 97° |
| 2026-05-04 17:54 | 52.65606 | 6.80631 | 34990 ft | 479 kts | 98° |
| 2026-05-04 17:55 | 52.65201 | 6.91577 | 34988 ft | 479 kts | 98° |
| 2026-05-04 17:55 | 52.64789 | 7.02525 | 34973 ft | 479 kts | 98° |
| 2026-05-04 17:56 | 52.64368 | 7.13472 | 34979 ft | 479 kts | 98° |
| 2026-05-04 17:56 | 52.63940 | 7.24425 | 34982 ft | 479 kts | 98° |
| 2026-05-04 17:57 | 52.63497 | 7.35369 | 34985 ft | 479 kts | 98° |
| 2026-05-04 17:57 | 52.63081 | 7.46328 | 34986 ft | 481 kts | 94° |
| 2026-05-04 17:58 | 52.63673 | 7.57354 | 34983 ft | 485 kts | 86° |
| 2026-05-04 17:58 | 52.64450 | 7.68387 | 34980 ft | 486 kts | 86° |
| 2026-05-04 17:59 | 52.65215 | 7.79445 | 34984 ft | 486 kts | 86° |
| 2026-05-04 18:00 | 52.66316 | 7.96051 | 34988 ft | 486 kts | 87° |
| 2026-05-04 18:00 | 52.67033 | 8.07132 | 34977 ft | 487 kts | 86° |
| 2026-05-04 18:01 | 52.67754 | 8.18228 | 34977 ft | 487 kts | 86° |
| 2026-05-04 18:01 | 52.68466 | 8.29341 | 34979 ft | 488 kts | 86° |
| 2026-05-04 18:02 | 52.69514 | 8.46032 | 34980 ft | 488 kts | 87° |
| 2026-05-04 18:02 | 52.70186 | 8.57104 | 34980 ft | 488 kts | 87° |
| 2026-05-04 18:03 | 52.70861 | 8.68332 | 34961 ft | 489 kts | 86° |
| 2026-05-04 18:03 | 52.71520 | 8.79435 | 34962 ft | 490 kts | 87° |
| 2026-05-04 18:04 | 52.72155 | 8.90630 | 34960 ft | 491 kts | 87° |
| 2026-05-04 18:05 | 52.73079 | 9.07459 | 34948 ft | 491 kts | 87° |
| 2026-05-04 18:05 | 52.73680 | 9.18679 | 34955 ft | 491 kts | 87° |
| 2026-05-04 18:06 | 52.74559 | 9.35526 | 34960 ft | 491 kts | 87° |
| 2026-05-04 18:06 | 52.75135 | 9.46762 | 34964 ft | 491 kts | 87° |
| 2026-05-04 18:07 | 52.75705 | 9.57994 | 34977 ft | 491 kts | 87° |
| 2026-05-04 18:07 | 52.76264 | 9.69234 | 34977 ft | 491 kts | 88° |
| 2026-05-04 18:08 | 52.76819 | 9.80475 | 34971 ft | 491 kts | 88° |
| 2026-05-04 18:08 | 52.77266 | 9.89817 | 34968 ft | 491 kts | 88° |
| 2026-05-04 18:09 | 52.78059 | 10.12299 | 34947 ft | 489 kts | 92° |
| 2026-05-04 18:10 | 52.77950 | 10.23521 | 34953 ft | 488 kts | 94° |
| 2026-05-04 18:10 | 52.77804 | 10.34744 | 34966 ft | 489 kts | 93° |
| 2026-05-04 18:11 | 52.77741 | 10.45968 | 34967 ft | 489 kts | 93° |
| 2026-05-04 18:11 | 52.77716 | 10.57184 | 34969 ft | 489 kts | 92° |
| 2026-05-04 18:12 | 52.77680 | 10.68410 | 34962 ft | 489 kts | 93° |
| 2026-05-04 18:12 | 52.77613 | 10.79646 | 34963 ft | 489 kts | 93° |
| 2026-05-04 18:13 | 52.77522 | 10.90880 | 34961 ft | 489 kts | 93° |
| 2026-05-04 18:14 | 52.77376 | 11.07740 | 34967 ft | 490 kts | 93° |
| 2026-05-04 18:14 | 52.77277 | 11.18986 | 34962 ft | 490 kts | 93° |
| 2026-05-04 18:15 | 52.77026 | 11.41486 | 34970 ft | 490 kts | 94° |
| 2026-05-04 18:16 | 52.76884 | 11.52742 | 34970 ft | 490 kts | 94° |
| 2026-05-04 18:16 | 52.76735 | 11.63995 | 34978 ft | 490 kts | 94° |
| 2026-05-04 18:17 | 52.76492 | 11.80803 | 34967 ft | 490 kts | 93° |
| 2026-05-04 18:18 | 52.76222 | 11.97687 | 34966 ft | 491 kts | 94° |
| 2026-05-04 18:18 | 52.76029 | 12.08945 | 34979 ft | 491 kts | 94° |
| 2026-05-04 18:19 | 52.75730 | 12.25836 | 34973 ft | 491 kts | 93° |
| 2026-05-04 18:19 | 52.75511 | 12.37105 | 34968 ft | 491 kts | 94° |
| 2026-05-04 18:20 | 52.75276 | 12.48380 | 34974 ft | 491 kts | 94° |
| 2026-05-04 18:20 | 52.75033 | 12.59657 | 34969 ft | 492 kts | 94° |
| 2026-05-04 18:21 | 52.74785 | 12.70932 | 34953 ft | 491 kts | 94° |
| 2026-05-04 18:21 | 52.74522 | 12.82206 | 34967 ft | 491 kts | 94° |
| 2026-05-04 18:22 | 52.74241 | 12.93466 | 34972 ft | 491 kts | 94° |
| 2026-05-04 18:22 | 52.73958 | 13.04718 | 34972 ft | 491 kts | 94° |
| 2026-05-04 18:23 | 52.73668 | 13.15973 | 34972 ft | 491 kts | 94° |
| 2026-05-04 18:23 | 52.73368 | 13.27204 | 34966 ft | 490 kts | 94° |
| 2026-05-04 18:24 | 52.73049 | 13.38430 | 34972 ft | 489 kts | 94° |
| 2026-05-04 18:24 | 52.72725 | 13.49657 | 34973 ft | 489 kts | 94° |
| 2026-05-04 18:25 | 52.72395 | 13.60837 | 34972 ft | 488 kts | 94° |
| 2026-05-04 18:25 | 52.72047 | 13.72018 | 34959 ft | 488 kts | 94° |
| 2026-05-04 18:26 | 52.71691 | 13.83188 | 34971 ft | 487 kts | 94° |
| 2026-05-04 18:26 | 52.71324 | 13.94337 | 34973 ft | 487 kts | 95° |
| 2026-05-04 18:27 | 52.70942 | 14.05471 | 34970 ft | 486 kts | 95° |
| 2026-05-04 18:27 | 52.70562 | 14.16605 | 34969 ft | 486 kts | 95° |
| 2026-05-04 18:28 | 52.70174 | 14.27724 | 34960 ft | 486 kts | 95° |
| 2026-05-04 18:28 | 52.69763 | 14.38830 | 34965 ft | 485 kts | 95° |
| 2026-05-04 18:29 | 52.69344 | 14.49925 | 34966 ft | 485 kts | 95° |
| 2026-05-04 18:29 | 52.68917 | 14.61022 | 34964 ft | 485 kts | 95° |
| 2026-05-04 18:30 | 52.68273 | 14.77655 | 34965 ft | 485 kts | 95° |
| 2026-05-04 18:31 | 52.67820 | 14.88732 | 34965 ft | 485 kts | 95° |
| 2026-05-04 18:31 | 52.67349 | 14.99813 | 34965 ft | 484 kts | 95° |
| 2026-05-04 18:32 | 52.66873 | 15.10812 | 34966 ft | 484 kts | 96° |
| 2026-05-04 18:32 | 52.66392 | 15.21883 | 34954 ft | 484 kts | 96° |
| 2026-05-04 18:33 | 52.65905 | 15.32942 | 34960 ft | 484 kts | 96° |
| 2026-05-04 18:33 | 52.65408 | 15.44002 | 34966 ft | 484 kts | 96° |
| 2026-05-04 18:34 | 52.64889 | 15.55051 | 34964 ft | 484 kts | 96° |
| 2026-05-04 18:34 | 52.64369 | 15.66092 | 34965 ft | 484 kts | 96° |
| 2026-05-04 18:35 | 52.63833 | 15.77127 | 34959 ft | 483 kts | 96° |
| 2026-05-04 18:35 | 52.63292 | 15.88155 | 34961 ft | 483 kts | 96° |
| 2026-05-04 18:36 | 52.62741 | 15.99182 | 34966 ft | 483 kts | 96° |
| 2026-05-04 18:36 | 52.62176 | 16.10186 | 34961 ft | 483 kts | 96° |
| 2026-05-04 18:37 | 52.61599 | 16.21191 | 34961 ft | 483 kts | 96° |
| 2026-05-04 18:37 | 52.61013 | 16.32194 | 34968 ft | 483 kts | 96° |
| 2026-05-04 18:38 | 52.60425 | 16.43188 | 34962 ft | 483 kts | 96° |
| 2026-05-04 18:38 | 52.59825 | 16.54191 | 34957 ft | 483 kts | 97° |
| 2026-05-04 18:39 | 52.59210 | 16.65200 | 34956 ft | 483 kts | 97° |
| 2026-05-04 18:39 | 52.58582 | 16.76212 | 34949 ft | 484 kts | 96° |
| 2026-05-04 18:40 | 52.57949 | 16.87220 | 34953 ft | 483 kts | 97° |
| 2026-05-04 18:40 | 52.57306 | 16.98219 | 34960 ft | 483 kts | 97° |
| 2026-05-04 18:41 | 52.56650 | 17.09210 | 34962 ft | 483 kts | 97° |
| 2026-05-04 18:41 | 52.55978 | 17.20186 | 34961 ft | 483 kts | 97° |
| 2026-05-04 18:42 | 52.55305 | 17.31099 | 34955 ft | 483 kts | 96° |
| 2026-05-04 18:42 | 52.54630 | 17.42074 | 34959 ft | 482 kts | 97° |
| 2026-05-04 18:43 | 52.53944 | 17.53034 | 34962 ft | 482 kts | 97° |
| 2026-05-04 18:43 | 52.53236 | 17.63986 | 34959 ft | 482 kts | 97° |
| 2026-05-04 18:44 | 52.52518 | 17.74930 | 34943 ft | 482 kts | 97° |
| 2026-05-04 18:44 | 52.51794 | 17.85865 | 34958 ft | 481 kts | 97° |
| 2026-05-04 18:45 | 52.51062 | 17.96787 | 34961 ft | 481 kts | 97° |
| 2026-05-04 18:45 | 52.50325 | 18.07700 | 34952 ft | 481 kts | 97° |
| 2026-05-04 18:46 | 52.49567 | 18.18707 | 34671 ft | 493 kts | 97° |
| 2026-05-04 18:46 | 52.49172 | 18.24314 | 34409 ft | 495 kts | 97° |
| 2026-05-04 18:46 | 52.48773 | 18.29921 | 34179 ft | 494 kts | 97° |
| 2026-05-04 18:46 | 52.48375 | 18.35513 | 33941 ft | 493 kts | 97° |
| 2026-05-04 18:47 | 52.47973 | 18.41111 | 33024 ft | 498 kts | 97° |
| 2026-05-04 18:47 | 52.47566 | 18.46759 | 32317 ft | 497 kts | 97° |
| 2026-05-04 18:47 | 52.47162 | 18.52348 | 31800 ft | 492 kts | 97° |
| 2026-05-04 18:47 | 52.46761 | 18.57909 | 31218 ft | 489 kts | 97° |
| 2026-05-04 18:48 | 52.46361 | 18.63431 | 30642 ft | 487 kts | 97° |
| 2026-05-04 18:48 | 52.45960 | 18.68933 | 30067 ft | 485 kts | 97° |
| 2026-05-04 18:48 | 52.45559 | 18.74399 | 29429 ft | 482 kts | 97° |
| 2026-05-04 18:48 | 52.45156 | 18.79822 | 28873 ft | 476 kts | 97° |
| 2026-05-04 18:49 | 52.44753 | 18.85178 | 28315 ft | 471 kts | 98° |
| 2026-05-04 18:49 | 52.44350 | 18.90488 | 27762 ft | 467 kts | 98° |
| 2026-05-04 18:49 | 52.43949 | 18.95741 | 27215 ft | 462 kts | 98° |
| 2026-05-04 18:49 | 52.43463 | 19.00905 | 26845 ft | 453 kts | 106° |
| 2026-05-04 18:50 | 52.42436 | 19.05669 | 26722 ft | 436 kts | 114° |
| 2026-05-04 18:50 | 52.41316 | 19.10208 | 26616 ft | 423 kts | 114° |
| 2026-05-04 18:50 | 52.40223 | 19.14605 | 26519 ft | 411 kts | 114° |
| 2026-05-04 18:50 | 52.39154 | 19.18882 | 26421 ft | 401 kts | 114° |
| 2026-05-04 18:51 | 52.38092 | 19.23108 | 26326 ft | 402 kts | 114° |
| 2026-05-04 18:51 | 52.37021 | 19.27341 | 26237 ft | 403 kts | 114° |
| 2026-05-04 18:51 | 52.35935 | 19.31615 | 26047 ft | 416 kts | 114° |
| 2026-05-04 18:51 | 52.34812 | 19.36031 | 25809 ft | 424 kts | 114° |
| 2026-05-04 18:52 | 52.33694 | 19.40437 | 25557 ft | 425 kts | 114° |
| 2026-05-04 18:52 | 52.32562 | 19.44899 | 25308 ft | 424 kts | 114° |
| 2026-05-04 18:52 | 52.31420 | 19.49409 | 25066 ft | 423 kts | 114° |
| 2026-05-04 18:52 | 52.30312 | 19.53777 | 24825 ft | 421 kts | 114° |
| 2026-05-04 18:53 | 52.29190 | 19.58186 | 24590 ft | 420 kts | 114° |
| 2026-05-04 18:53 | 52.28069 | 19.62578 | 24353 ft | 418 kts | 115° |
| 2026-05-04 18:53 | 52.26948 | 19.66949 | 24119 ft | 417 kts | 115° |
| 2026-05-04 18:53 | 52.25831 | 19.71295 | 23860 ft | 413 kts | 115° |
| 2026-05-04 18:54 | 52.24722 | 19.75606 | 23390 ft | 412 kts | 115° |
| 2026-05-04 18:54 | 52.23615 | 19.79902 | 22887 ft | 410 kts | 115° |
| 2026-05-04 18:54 | 52.22512 | 19.84164 | 22427 ft | 406 kts | 115° |
| 2026-05-04 18:54 | 52.21413 | 19.88392 | 21959 ft | 404 kts | 115° |
| 2026-05-04 18:55 | 52.20318 | 19.92594 | 21488 ft | 401 kts | 115° |
| 2026-05-04 18:55 | 52.18502 | 19.99573 | 20676 ft | 397 kts | 115° |
| 2026-05-04 18:55 | 52.17424 | 20.03706 | 20193 ft | 395 kts | 115° |
| 2026-05-04 18:56 | 52.16348 | 20.07824 | 19692 ft | 394 kts | 115° |
| 2026-05-04 18:56 | 52.15291 | 20.11866 | 19210 ft | 392 kts | 115° |
| 2026-05-04 18:56 | 52.14209 | 20.15999 | 18693 ft | 391 kts | 115° |
| 2026-05-04 18:56 | 52.13146 | 20.20054 | 18181 ft | 389 kts | 115° |
| 2026-05-04 18:57 | 52.12097 | 20.24043 | 17633 ft | 387 kts | 116° |
| 2026-05-04 18:57 | 52.11041 | 20.28053 | 17134 ft | 384 kts | 116° |
| 2026-05-04 18:57 | 52.09993 | 20.32027 | 16648 ft | 380 kts | 116° |
| 2026-05-04 18:57 | 52.08954 | 20.35961 | 16136 ft | 378 kts | 116° |
| 2026-05-04 18:58 | 52.07918 | 20.39873 | 15649 ft | 375 kts | 116° |
| 2026-05-04 18:58 | 52.06888 | 20.43747 | 15152 ft | 372 kts | 116° |
| 2026-05-04 18:58 | 52.05864 | 20.47596 | 14661 ft | 370 kts | 117° |
| 2026-05-04 18:58 | 52.04831 | 20.51468 | 14166 ft | 367 kts | 117° |
| 2026-05-04 18:59 | 52.03831 | 20.55211 | 13680 ft | 365 kts | 117° |
| 2026-05-04 18:59 | 52.02823 | 20.58993 | 13011 ft | 366 kts | 116° |
| 2026-05-04 18:59 | 52.01787 | 20.62856 | 11901 ft | 380 kts | 116° |
| 2026-05-04 18:59 | 52.00710 | 20.66851 | 10777 ft | 393 kts | 116° |
| 2026-05-04 19:00 | 51.99612 | 20.70932 | 10153 ft | 391 kts | 116° |
| 2026-05-04 19:00 | 51.98531 | 20.74962 | 9515 ft | 386 kts | 116° |
| 2026-05-04 19:00 | 51.97492 | 20.78834 | 8845 ft | 362 kts | 116° |
| 2026-05-04 19:00 | 51.96521 | 20.82457 | 8422 ft | 335 kts | 116° |
| 2026-05-04 19:01 | 51.95629 | 20.85781 | 7966 ft | 315 kts | 116° |
| 2026-05-04 19:01 | 51.94761 | 20.88991 | 7268 ft | 307 kts | 116° |
| 2026-05-04 19:01 | 51.93912 | 20.92120 | 6592 ft | 300 kts | 116° |
| 2026-05-04 19:01 | 51.93078 | 20.95177 | 5873 ft | 294 kts | 117° |
| 2026-05-04 19:02 | 51.92257 | 20.98182 | 5129 ft | 290 kts | 117° |
| 2026-05-04 19:02 | 51.91451 | 21.01162 | 4381 ft | 288 kts | 114° |
| 2026-05-04 19:02 | 51.91082 | 21.04320 | 3717 ft | 285 kts | 89° |
| 2026-05-04 19:02 | 51.91469 | 21.07369 | 3401 ft | 269 kts | 66° |
| 2026-05-04 19:03 | 51.92400 | 21.09847 | 3109 ft | 250 kts | 46° |
| 2026-05-04 19:03 | 51.93675 | 21.11585 | 2991 ft | 233 kts | 28° |
| 2026-05-04 19:03 | 51.95140 | 21.12594 | 2989 ft | 226 kts | 11° |
| 2026-05-04 19:03 | 51.96678 | 21.12900 | 2990 ft | 221 kts | 354° |
| 2026-05-04 19:04 | 51.98179 | 21.12520 | 2999 ft | 217 kts | 338° |
| 2026-05-04 19:04 | 51.99538 | 21.11530 | 2996 ft | 214 kts | 327° |
| 2026-05-04 19:04 | 52.00849 | 21.10393 | 2994 ft | 213 kts | 328° |
| 2026-05-04 19:04 | 52.02157 | 21.09260 | 2992 ft | 213 kts | 328° |
| 2026-05-04 19:05 | 52.03469 | 21.08123 | 2909 ft | 214 kts | 328° |
| 2026-05-04 19:05 | 52.04761 | 21.07004 | 2704 ft | 205 kts | 328° |
| 2026-05-04 19:05 | 52.05984 | 21.05943 | 2443 ft | 194 kts | 328° |
| 2026-05-04 19:05 | 52.07144 | 21.04935 | 2193 ft | 185 kts | 327° |
| 2026-05-04 19:06 | 52.08226 | 21.03996 | 1957 ft | 170 kts | 327° |
| 2026-05-04 19:06 | 52.09233 | 21.03111 | 1705 ft | 157 kts | 326° |
| 2026-05-04 19:06 | 52.10173 | 21.02273 | 1528 ft | 151 kts | 327° |
| 2026-05-04 19:06 | 52.11089 | 21.01474 | 1349 ft | 148 kts | 328° |
| 2026-05-04 19:07 | 52.11988 | 21.00703 | 1149 ft | 148 kts | 329° |
| 2026-05-04 19:07 | 52.12896 | 20.99913 | 962 ft | 148 kts | 329° |
| 2026-05-04 19:07 | 52.13798 | 20.99117 | 775 ft | 148 kts | 330° |
| 2026-05-04 19:07 | 52.14711 | 20.98337 | 554 ft | 148 kts | 331° |
| 2026-05-04 19:08 | 52.15612 | 20.97550 | 372 ft | 147 kts | 330° |
| 2026-05-04 19:08 | 52.16442 | 20.96826 | 336 ft | 115 kts | 332° |
| 2026-05-04 19:08 | 52.16988 | 20.96344 | 336 ft | 57 kts | 331° |
| 2026-05-04 19:08 | 52.17221 | 20.96239 | 333 ft | 19 kts | 1° |
| 2026-05-04 19:09 | 52.17300 | 20.96242 | 337 ft | 9 kts | 1° |
| 2026-05-04 19:09 | 52.17364 | 20.96251 | 338 ft | 10 kts | 15° |
| 2026-05-04 19:09 | 52.17411 | 20.96329 | 336 ft | 9 kts | 61° |
| 2026-05-04 19:09 | 52.17445 | 20.96430 | 336 ft | 11 kts | 61° |
| 2026-05-04 19:10 | 52.17473 | 20.96538 | 338 ft | 10 kts | 94° |
| 2026-05-04 19:10 | 52.17419 | 20.96610 | 336 ft | 11 kts | 150° |
| 2026-05-04 19:10 | 52.17348 | 20.96672 | 333 ft | 12 kts | 152° |
| 2026-05-04 19:10 | 52.17280 | 20.96732 | 334 ft | 11 kts | 152° |
| 2026-05-04 19:11 | 52.17208 | 20.96795 | 339 ft | 12 kts | 151° |
| 2026-05-04 19:11 | 52.17131 | 20.96863 | 337 ft | 11 kts | 152° |
| 2026-05-04 19:11 | 52.17072 | 20.96910 | 336 ft | 8 kts | 170° |
| 2026-05-04 19:11 | 52.17045 | 20.96860 | 337 ft | 5 kts | 253° |
| 2026-05-04 19:12 | 52.17047 | 20.96799 | 339 ft | 0 kts | 276° |